createdAt,value
2023-06-20T00:00:55.565Z,83.49
2023-06-20T00:03:42.675Z,83.36
2023-06-20T00:06:10.186Z,83.41
2023-06-20T00:08:37.104Z,83.38
2023-06-20T00:11:04.939Z,83.97
2023-06-20T00:13:31.991Z,83.99
2023-06-20T00:15:59.431Z,84.07
2023-06-20T00:18:26.896Z,84.32
2023-06-20T00:20:56.764Z,84.65
2023-06-20T00:23:26.472Z,84.88
2023-06-20T00:25:53.704Z,85.26
2023-06-20T00:28:20.936Z,85.48
2023-06-20T00:30:48.307Z,85.92
2023-06-20T00:33:19.875Z,86.44
2023-06-20T00:35:47.686Z,86.68
2023-06-20T00:38:14.919Z,86.69
2023-06-20T00:40:42.402Z,86.83
2023-06-20T00:43:09.452Z,87.02
2023-06-20T00:45:37.361Z,87.21
2023-06-20T00:48:07.974Z,87.54
2023-06-20T00:50:36.205Z,87.87
2023-06-20T00:53:07.712Z,87.84
2023-06-20T00:55:37.202Z,87.87
2023-06-20T00:58:05.594Z,87.78
2023-06-20T01:00:35.168Z,87.71
2023-06-20T01:03:08.168Z,87.80
2023-06-20T01:05:36.876Z,88.01
2023-06-20T01:08:23.979Z,87.93
2023-06-20T01:11:16.821Z,88.14
2023-06-20T01:14:17.435Z,88.15
2023-06-20T01:17:08.842Z,88.12
2023-06-20T01:19:55.166Z,88.36
2023-06-20T01:22:52.439Z,88.61
2023-06-20T01:25:24.986Z,88.64
2023-06-20T01:28:10.323Z,88.70
2023-06-20T01:30:57.059Z,88.72
2023-06-20T01:33:30.244Z,88.87
2023-06-20T01:36:01.180Z,88.85
2023-06-20T01:38:32.373Z,89.03
2023-06-20T01:41:01.590Z,88.97
2023-06-20T01:43:31.642Z,89.51
2023-06-20T01:46:02.438Z,89.40
2023-06-20T01:48:33.482Z,89.34
2023-06-20T01:51:01.164Z,89.46
2023-06-20T01:53:33.256Z,89.70
2023-06-20T01:56:03.206Z,89.68
2023-06-20T01:58:32.419Z,89.87
2023-06-20T02:01:00.313Z,90.01
2023-06-20T02:03:29.547Z,90.36
2023-06-20T02:05:58.566Z,90.33
2023-06-20T02:08:28.091Z,90.13
2023-06-20T02:10:57.891Z,90.17
2023-06-20T02:13:25.507Z,90.21
2023-06-20T02:15:54.272Z,90.45
2023-06-20T02:18:22.643Z,90.50
2023-06-20T02:20:52.981Z,90.53
2023-06-20T02:23:28.474Z,90.95
2023-06-20T02:26:08.809Z,90.92
2023-06-20T02:28:46.006Z,90.69
2023-06-20T02:31:19.083Z,90.39
2023-06-20T02:33:49.890Z,90.24
2023-06-20T02:36:18.761Z,89.96
2023-06-20T02:38:46.360Z,89.60
2023-06-20T02:41:13.850Z,89.48
2023-06-20T02:43:41.282Z,89.24
2023-06-20T02:46:26.573Z,88.97
2023-06-20T02:49:26.199Z,88.85
2023-06-20T02:52:31.015Z,88.65
2023-06-20T02:55:30.367Z,88.49
2023-06-20T02:58:00.418Z,88.47
2023-06-20T03:00:30.200Z,88.20
2023-06-20T03:03:06.510Z,88.18
2023-06-20T03:05:37.518Z,88.31
2023-06-20T03:08:05.364Z,88.61
2023-06-20T03:10:33.658Z,88.52
2023-06-20T03:13:04.328Z,88.30
2023-06-20T03:15:31.772Z,88.12
2023-06-20T03:18:03.092Z,87.88
2023-06-20T03:20:30.710Z,87.70
2023-06-20T03:22:59.019Z,87.41
2023-06-20T03:25:28.019Z,87.29
2023-06-20T03:27:55.627Z,87.49
2023-06-20T03:30:23.527Z,87.82
2023-06-20T03:32:52.332Z,87.64
2023-06-20T03:35:19.809Z,87.66
2023-06-20T03:37:47.078Z,87.54
2023-06-20T03:40:14.537Z,87.40
2023-06-20T03:42:44.214Z,87.02
2023-06-20T03:45:11.864Z,86.62
2023-06-20T03:47:40.883Z,86.45
2023-06-20T03:50:08.255Z,86.05
2023-06-20T03:52:36.949Z,86.00
2023-06-20T03:55:04.852Z,85.81
2023-06-20T03:57:31.847Z,85.94
2023-06-20T03:59:59.232Z,85.53
2023-06-20T04:02:29.090Z,85.74
2023-06-20T04:04:57.592Z,85.16
2023-06-20T04:07:24.553Z,85.04
2023-06-20T04:09:52.086Z,84.90
2023-06-20T04:12:19.834Z,84.70
2023-06-20T04:14:47.084Z,84.43
2023-06-20T04:17:14.294Z,84.40
2023-06-20T04:19:41.474Z,84.09
2023-06-20T04:22:10.608Z,83.88
2023-06-20T04:24:38.013Z,83.85
2023-06-20T04:27:05.703Z,83.57
2023-06-20T04:29:32.962Z,83.27
2023-06-20T04:32:00.240Z,82.65
2023-06-20T04:34:28.466Z,82.05
2023-06-20T04:36:55.906Z,81.63
2023-06-20T04:39:24.305Z,80.70
2023-06-20T04:41:51.480Z,80.34
2023-06-20T04:44:18.870Z,79.24
2023-06-20T04:46:46.602Z,78.56
2023-06-20T04:49:14.030Z,78.55
2023-06-20T04:51:44.045Z,78.46
2023-06-20T04:54:11.242Z,78.01
2023-06-20T04:56:41.627Z,77.29
2023-06-20T04:59:09.622Z,76.40
2023-06-20T05:01:36.718Z,75.75
2023-06-20T05:04:05.361Z,75.50
2023-06-20T05:06:32.796Z,74.39
2023-06-20T05:09:00.294Z,74.13
2023-06-20T05:11:27.917Z,73.69
2023-06-20T05:13:55.449Z,73.02
2023-06-20T05:16:23.439Z,72.71
2023-06-20T05:18:50.985Z,72.13
2023-06-20T05:21:18.001Z,71.70
2023-06-20T05:23:45.357Z,71.68
2023-06-20T05:26:13.288Z,71.25
2023-06-20T05:28:40.813Z,71.68
2023-06-20T05:31:10.817Z,71.91
2023-06-20T05:33:38.324Z,72.00
2023-06-20T05:36:06.288Z,71.55
2023-06-20T05:38:34.402Z,71.46
2023-06-20T05:41:01.402Z,71.16
2023-06-20T05:43:30.059Z,71.21
2023-06-20T05:45:58.441Z,70.96
2023-06-20T05:48:26.829Z,70.84
2023-06-20T05:50:54.243Z,70.70
2023-06-20T05:53:22.304Z,70.36
2023-06-20T05:55:52.334Z,70.11
2023-06-20T05:58:20.697Z,69.75
2023-06-20T06:00:48.123Z,69.56
2023-06-20T06:03:15.930Z,68.82
2023-06-20T06:05:43.084Z,68.54
2023-06-20T06:08:11.219Z,68.23
2023-06-20T06:10:38.508Z,67.98
2023-06-20T06:13:06.486Z,67.84
2023-06-20T06:15:33.639Z,67.63
2023-06-20T06:18:02.225Z,67.20
2023-06-20T06:20:30.635Z,66.30
2023-06-20T06:22:57.942Z,65.95
2023-06-20T06:25:24.934Z,66.02
2023-06-20T06:27:55.050Z,66.39
2023-06-20T06:30:23.254Z,66.04
2023-06-20T06:32:51.507Z,65.26
2023-06-20T06:35:19.383Z,64.47
2023-06-20T06:37:47.907Z,64.25
2023-06-20T06:40:15.047Z,64.52
2023-06-20T06:42:42.875Z,64.63
2023-06-20T06:45:10.518Z,63.44
2023-06-20T06:47:38.143Z,62.24
2023-06-20T06:50:05.589Z,62.72
2023-06-20T06:52:36.900Z,62.17
2023-06-20T06:55:04.222Z,60.82
2023-06-20T06:57:31.613Z,59.20
2023-06-20T06:59:58.476Z,60.36
2023-06-20T07:02:28.313Z,60.60
2023-06-20T07:04:55.455Z,59.13
2023-06-20T07:07:23.519Z,59.56
2023-06-20T07:09:50.507Z,58.92
2023-06-20T07:12:18.142Z,58.41
2023-06-20T07:14:45.177Z,58.26
2023-06-20T07:17:12.626Z,57.92
2023-06-20T07:19:39.865Z,57.63
2023-06-20T07:22:07.192Z,56.62
2023-06-20T07:24:34.255Z,56.58
2023-06-20T07:27:01.841Z,56.69
2023-06-20T07:29:29.843Z,57.17
2023-06-20T07:31:57.294Z,53.77
2023-06-20T07:34:24.899Z,54.18
2023-06-20T07:36:52.458Z,54.27
2023-06-20T07:39:19.655Z,54.91
2023-06-20T07:41:47.004Z,54.31
2023-06-20T07:44:14.428Z,53.99
2023-06-20T07:46:42.444Z,53.91
2023-06-20T07:49:09.769Z,52.81
2023-06-20T07:51:38.219Z,52.96
2023-06-20T07:54:05.759Z,53.15
2023-06-20T07:56:33.638Z,53.25
2023-06-20T07:59:00.561Z,53.35
2023-06-20T08:01:29.091Z,52.88
2023-06-20T08:03:56.116Z,53.05
2023-06-20T08:06:23.880Z,52.41
2023-06-20T08:08:51.042Z,52.44
2023-06-20T08:11:25.227Z,51.03
2023-06-20T08:13:52.466Z,50.84
2023-06-20T08:16:19.935Z,50.55
2023-06-20T08:18:47.011Z,50.66
2023-06-20T08:21:14.668Z,50.84
2023-06-20T08:23:41.693Z,50.36
2023-06-20T08:26:09.191Z,50.22
2023-06-20T08:28:36.692Z,50.28
2023-06-20T08:31:05.422Z,49.30
2023-06-20T08:33:32.698Z,48.12
2023-06-20T08:36:00.257Z,48.58
2023-06-20T08:38:27.335Z,48.95
2023-06-20T08:40:54.825Z,48.36
2023-06-20T08:43:21.878Z,49.13
2023-06-20T08:45:49.239Z,49.62
2023-06-20T08:48:16.436Z,49.95
2023-06-20T08:50:48.668Z,50.19
2023-06-20T08:53:16.970Z,49.84
2023-06-20T08:55:46.345Z,50.33
2023-06-20T08:58:13.434Z,49.89
2023-06-20T09:00:40.903Z,49.96
2023-06-20T09:03:08.423Z,49.56
2023-06-20T09:05:43.919Z,48.84
2023-06-20T09:08:15.971Z,49.01
2023-06-20T09:10:43.722Z,48.90
2023-06-20T09:13:13.070Z,48.98
2023-06-20T09:15:42.214Z,49.14
2023-06-20T09:18:14.633Z,48.84
2023-06-20T09:20:44.570Z,48.46
2023-06-20T09:23:12.336Z,47.66
2023-06-20T09:25:41.360Z,48.55
2023-06-20T09:28:18.409Z,48.98
2023-06-20T09:30:49.573Z,48.76
2023-06-20T09:33:17.642Z,47.38
2023-06-20T09:35:45.719Z,47.25
2023-06-20T09:38:13.121Z,47.70
2023-06-20T09:40:47.320Z,47.70
2023-06-20T09:43:14.653Z,47.38
2023-06-20T09:45:42.085Z,47.49
2023-06-20T09:48:11.091Z,47.62
2023-06-20T09:50:40.811Z,47.95
2023-06-20T09:53:37.709Z,47.76
2023-06-20T09:56:09.896Z,45.93
2023-06-20T09:58:44.355Z,46.45
2023-06-20T10:01:22.153Z,46.84
2023-06-20T10:03:50.414Z,45.83
2023-06-20T10:06:18.625Z,46.11
2023-06-20T10:08:47.612Z,45.83
2023-06-20T10:11:14.957Z,45.65
2023-06-20T10:13:42.731Z,45.68
2023-06-20T10:16:10.037Z,46.18
2023-06-20T10:18:38.571Z,46.45
2023-06-20T10:21:07.502Z,47.23
2023-06-20T10:23:39.359Z,47.04
2023-06-20T10:26:10.010Z,46.08
2023-06-20T10:28:39.089Z,45.17
2023-06-20T10:31:06.552Z,44.39
2023-06-20T10:33:44.567Z,45.12
2023-06-20T10:36:13.997Z,45.07
2023-06-20T10:38:53.214Z,44.40
2023-06-20T10:41:25.990Z,44.98
2023-06-20T10:43:57.156Z,45.27
2023-06-20T10:46:43.157Z,45.10
2023-06-20T10:49:11.641Z,45.17
2023-06-20T10:51:54.338Z,44.79
2023-06-20T10:54:22.440Z,44.29
2023-06-20T10:56:50.000Z,42.25
2023-06-20T10:59:19.506Z,41.62
2023-06-20T11:01:47.107Z,41.79
2023-06-20T11:04:16.964Z,42.24
2023-06-20T11:06:44.249Z,42.22
2023-06-20T11:09:22.217Z,42.38
2023-06-20T11:11:50.047Z,41.67
2023-06-20T11:14:20.371Z,40.85
2023-06-20T11:16:49.396Z,41.52
2023-06-20T11:19:35.918Z,41.74
2023-06-20T11:22:05.302Z,40.94
2023-06-20T11:24:34.395Z,40.56
2023-06-20T11:27:15.669Z,41.02
2023-06-20T11:29:43.231Z,41.54
2023-06-20T11:32:12.231Z,42.34
2023-06-20T11:34:57.861Z,43.10
2023-06-20T11:37:25.295Z,43.33
2023-06-20T11:39:56.630Z,42.93
2023-06-20T11:42:23.948Z,42.49
2023-06-20T11:44:51.600Z,42.45
2023-06-20T11:47:18.923Z,42.62
2023-06-20T11:49:46.125Z,42.43
2023-06-20T11:52:13.192Z,42.10
2023-06-20T11:54:50.634Z,42.53
2023-06-20T11:57:33.781Z,42.96
2023-06-20T12:00:08.670Z,42.62
2023-06-20T12:02:42.361Z,42.93
2023-06-20T12:05:10.008Z,43.71
2023-06-20T12:07:57.920Z,44.25
2023-06-20T12:10:29.647Z,43.46
2023-06-20T12:12:57.099Z,43.72
2023-06-20T12:15:24.556Z,43.18
2023-06-20T12:17:52.235Z,43.00
2023-06-20T12:20:33.983Z,43.65
2023-06-20T12:23:02.068Z,44.28
2023-06-20T12:25:29.578Z,44.07
2023-06-20T12:27:58.751Z,44.07
2023-06-20T12:30:27.397Z,43.71
2023-06-20T12:32:56.969Z,43.37
2023-06-20T12:35:24.393Z,42.66
2023-06-20T12:37:51.412Z,42.37
2023-06-20T12:40:18.908Z,41.98
2023-06-20T12:42:45.945Z,42.31
2023-06-20T12:45:13.393Z,42.17
2023-06-20T12:47:40.484Z,41.91
2023-06-20T12:50:10.716Z,40.67
2023-06-20T12:52:38.139Z,40.85
2023-06-20T12:55:07.098Z,40.71
2023-06-20T12:57:34.615Z,40.79
2023-06-20T13:00:02.014Z,41.03
2023-06-20T13:02:29.655Z,41.08
2023-06-20T13:04:57.046Z,40.85
2023-06-20T13:07:24.770Z,41.57
2023-06-20T13:09:52.712Z,40.53
2023-06-20T13:12:20.827Z,39.93
2023-06-20T13:15:05.599Z,39.04
2023-06-20T13:17:36.026Z,39.58
2023-06-20T13:20:07.281Z,39.36
2023-06-20T13:22:35.172Z,39.60
2023-06-20T13:25:02.703Z,39.11
2023-06-20T13:27:30.058Z,38.51
2023-06-20T13:29:58.842Z,38.45
2023-06-20T13:32:26.469Z,38.44
2023-06-20T13:34:53.757Z,38.76
2023-06-20T13:37:20.935Z,39.58
2023-06-20T13:39:48.631Z,39.07
2023-06-20T13:42:15.601Z,38.73
2023-06-20T13:44:43.806Z,39.08
2023-06-20T13:47:12.263Z,38.04
2023-06-20T13:49:40.146Z,38.04
2023-06-20T13:52:07.733Z,38.42
2023-06-20T13:54:35.028Z,39.11
2023-06-20T13:57:02.167Z,38.33
2023-06-20T13:59:29.904Z,37.84
2023-06-20T14:01:57.462Z,38.20
2023-06-20T14:04:25.032Z,38.53
2023-06-20T14:06:52.747Z,37.85
2023-06-20T14:09:20.160Z,38.17
2023-06-20T14:11:47.606Z,38.88
2023-06-20T14:14:14.866Z,38.22
2023-06-20T14:16:42.122Z,37.75
2023-06-20T14:19:09.410Z,36.49
2023-06-20T14:21:36.508Z,36.49
2023-06-20T14:24:04.309Z,36.52
2023-06-20T14:26:32.372Z,36.79
2023-06-20T14:28:59.816Z,36.55
2023-06-20T14:31:26.924Z,36.08
2023-06-20T14:33:54.669Z,36.46
2023-06-20T14:36:22.064Z,35.51
2023-06-20T14:38:49.849Z,34.61
2023-06-20T14:41:16.918Z,32.76
2023-06-20T14:43:44.676Z,31.73
2023-06-20T14:46:12.681Z,29.87
2023-06-20T14:48:40.445Z,28.60
2023-06-20T14:51:07.584Z,27.86
2023-06-20T14:53:34.970Z,27.28
2023-06-20T14:56:02.326Z,26.45
2023-06-20T14:58:29.589Z,26.24
2023-06-20T15:00:58.085Z,26.89
2023-06-20T15:03:26.723Z,27.24
2023-06-20T15:05:56.868Z,27.71
2023-06-20T15:08:25.335Z,28.83
2023-06-20T15:10:52.347Z,30.76
2023-06-20T15:13:19.872Z,32.29
2023-06-20T15:15:47.293Z,32.66
2023-06-20T15:18:15.374Z,32.84
2023-06-20T15:20:42.739Z,32.51
2023-06-20T15:23:10.351Z,30.86
2023-06-20T15:25:37.398Z,31.62
2023-06-20T15:28:06.073Z,31.88
2023-06-20T15:30:33.416Z,33.26
2023-06-20T15:33:05.610Z,34.44
2023-06-20T15:35:33.015Z,35.53
2023-06-20T15:38:01.258Z,34.88
2023-06-20T15:40:28.811Z,34.67
2023-06-20T15:42:56.607Z,34.78
2023-06-20T15:45:23.588Z,34.46
2023-06-20T15:47:51.010Z,35.02
2023-06-20T15:50:18.281Z,35.15
2023-06-20T15:52:45.805Z,34.84
2023-06-20T15:55:13.054Z,34.60
2023-06-20T15:57:40.385Z,33.01
2023-06-20T16:00:08.280Z,32.54
2023-06-20T16:02:36.498Z,32.02
2023-06-20T16:05:05.204Z,31.06
2023-06-20T16:07:34.893Z,30.78
2023-06-20T16:10:02.248Z,30.56
2023-06-20T16:12:30.041Z,30.88
2023-06-20T16:14:58.643Z,31.81
2023-06-20T16:17:26.503Z,33.28
2023-06-20T16:19:53.652Z,34.41
2023-06-20T16:22:21.200Z,34.92
2023-06-20T16:24:48.562Z,34.76
2023-06-20T16:27:18.100Z,35.00
2023-06-20T16:29:45.639Z,34.84
2023-06-20T16:32:13.008Z,35.21
2023-06-20T16:34:41.317Z,35.63
2023-06-20T16:37:08.798Z,34.98
2023-06-20T16:39:37.327Z,35.68
2023-06-20T16:42:06.686Z,36.20
2023-06-20T16:44:33.605Z,36.64
2023-06-20T16:47:02.291Z,36.98
2023-06-20T16:49:31.714Z,37.11
2023-06-20T16:51:59.561Z,37.54
2023-06-20T16:54:26.512Z,37.82
2023-06-20T16:56:54.185Z,37.56
2023-06-20T16:59:21.241Z,37.81
2023-06-20T17:01:48.742Z,38.09
2023-06-20T17:04:16.458Z,37.80
2023-06-20T17:06:43.616Z,38.11
2023-06-20T17:09:10.672Z,38.28
2023-06-20T17:11:38.200Z,38.58
2023-06-20T17:14:05.790Z,38.54
2023-06-20T17:16:33.153Z,38.40
2023-06-20T17:19:00.713Z,38.41
2023-06-20T17:21:27.991Z,38.59
2023-06-20T17:23:55.318Z,39.01
2023-06-20T17:26:22.794Z,39.34
2023-06-20T17:28:51.052Z,39.72
2023-06-20T17:31:18.424Z,40.15
2023-06-20T17:33:46.116Z,40.65
2023-06-20T17:36:13.472Z,40.85
2023-06-20T17:38:40.708Z,40.90
2023-06-20T17:41:08.599Z,41.29
2023-06-20T17:43:36.139Z,41.64
2023-06-20T17:46:03.536Z,42.01
2023-06-20T17:48:30.870Z,42.14
2023-06-20T17:50:58.229Z,42.56
2023-06-20T17:53:25.545Z,42.64
2023-06-20T17:55:53.107Z,42.92
2023-06-20T17:58:20.072Z,43.33
2023-06-20T18:00:47.732Z,44.01
2023-06-20T18:03:15.015Z,43.89
2023-06-20T18:05:42.931Z,44.20
2023-06-20T18:08:09.973Z,44.47
2023-06-20T18:10:37.541Z,44.44
2023-06-20T18:13:05.043Z,44.80
2023-06-20T18:15:32.611Z,45.54
2023-06-20T18:17:59.713Z,46.14
2023-06-20T18:20:27.745Z,46.18
2023-06-20T18:22:55.035Z,46.60
2023-06-20T18:25:22.622Z,46.82
2023-06-20T18:27:50.685Z,47.18
2023-06-20T18:30:18.427Z,48.00
2023-06-20T18:32:45.659Z,48.01
2023-06-20T18:35:13.187Z,47.97
2023-06-20T18:37:40.649Z,48.10
2023-06-20T18:40:08.763Z,48.92
2023-06-20T18:42:35.891Z,49.43
2023-06-20T18:45:03.538Z,49.91
2023-06-20T18:47:30.750Z,50.09
2023-06-20T18:49:58.436Z,50.19
2023-06-20T18:52:25.350Z,49.99
2023-06-20T18:54:52.613Z,49.62
2023-06-20T18:57:19.834Z,50.33
2023-06-20T18:59:47.364Z,51.08
2023-06-20T19:02:14.708Z,51.48
2023-06-20T19:04:42.009Z,51.72
2023-06-20T19:07:10.859Z,51.73
2023-06-20T19:09:39.577Z,51.97
2023-06-20T19:12:07.679Z,52.58
2023-06-20T19:14:36.169Z,52.68
2023-06-20T19:17:03.753Z,52.89
2023-06-20T19:19:31.857Z,52.93
2023-06-20T19:21:59.080Z,53.34
2023-06-20T19:24:27.727Z,53.28
2023-06-20T19:26:55.414Z,53.13
2023-06-20T19:29:22.650Z,53.31
2023-06-20T19:31:50.073Z,53.82
2023-06-20T19:34:17.532Z,54.21
2023-06-20T19:36:44.895Z,54.42
2023-06-20T19:39:12.225Z,55.25
2023-06-20T19:41:39.322Z,55.54
2023-06-20T19:44:06.593Z,55.17
2023-06-20T19:46:33.900Z,55.31
2023-06-20T19:49:02.487Z,55.42
2023-06-20T19:51:33.330Z,55.77
2023-06-20T19:54:01.272Z,56.29
2023-06-20T19:56:29.465Z,56.35
2023-06-20T19:58:57.193Z,56.22
2023-06-20T20:01:26.234Z,55.98
2023-06-20T20:03:56.715Z,55.85
2023-06-20T20:06:24.246Z,55.76
2023-06-20T20:08:52.053Z,55.76
2023-06-20T20:11:19.501Z,55.71
2023-06-20T20:13:46.771Z,55.47
2023-06-20T20:16:14.064Z,55.09
2023-06-20T20:18:41.410Z,54.86
2023-06-20T20:21:09.457Z,54.35
2023-06-20T20:23:43.441Z,54.31
2023-06-20T20:26:12.072Z,54.53
2023-06-20T20:28:39.240Z,54.93
2023-06-20T20:31:06.518Z,55.49
2023-06-20T20:33:33.873Z,55.90
2023-06-20T20:36:01.437Z,56.46
2023-06-20T20:38:28.763Z,56.97
2023-06-20T20:40:56.258Z,57.19
2023-06-20T20:43:23.793Z,57.54
2023-06-20T20:45:52.952Z,57.78
2023-06-20T20:48:22.182Z,57.76
2023-06-20T20:50:49.564Z,57.75
2023-06-20T20:53:16.922Z,58.05
2023-06-20T20:55:44.030Z,58.34
2023-06-20T20:58:11.568Z,59.14
2023-06-20T21:00:38.798Z,60.09
2023-06-20T21:03:07.074Z,60.28
2023-06-20T21:05:34.567Z,60.53
2023-06-20T21:08:03.641Z,60.56
2023-06-20T21:10:31.467Z,61.26
2023-06-20T21:12:58.885Z,61.68
2023-06-20T21:15:26.586Z,61.88
2023-06-20T21:17:54.549Z,62.26
2023-06-20T21:20:23.748Z,62.62
2023-06-20T21:22:51.853Z,63.05
2023-06-20T21:25:18.899Z,63.16
2023-06-20T21:27:46.425Z,63.67
2023-06-20T21:30:13.722Z,63.99
2023-06-20T21:32:41.087Z,64.25
2023-06-20T21:35:08.257Z,64.52
2023-06-20T21:37:35.769Z,65.00
2023-06-20T21:40:04.151Z,65.33
2023-06-20T21:42:31.708Z,65.67
2023-06-20T21:44:58.908Z,65.93
2023-06-20T21:47:26.485Z,66.20
2023-06-20T21:49:55.259Z,66.45
2023-06-20T21:52:22.809Z,66.83
2023-06-20T21:54:49.746Z,67.16
2023-06-20T21:57:17.451Z,67.32
2023-06-20T21:59:44.637Z,67.62
2023-06-20T22:02:12.381Z,67.90
2023-06-20T22:04:39.357Z,67.93
2023-06-20T22:07:08.848Z,68.21
2023-06-20T22:09:44.405Z,68.40
2023-06-20T22:12:17.774Z,68.46
2023-06-20T22:14:45.106Z,68.79
2023-06-20T22:17:18.285Z,68.83
2023-06-20T22:19:45.600Z,68.85
2023-06-20T22:22:12.897Z,68.62
2023-06-20T22:24:40.159Z,68.56
2023-06-20T22:27:07.865Z,68.49
2023-06-20T22:29:35.443Z,68.61
2023-06-20T22:32:02.704Z,68.48
2023-06-20T22:34:30.348Z,68.64
2023-06-20T22:36:57.486Z,68.99
2023-06-20T22:39:24.376Z,68.79
2023-06-20T22:41:51.758Z,69.09
2023-06-20T22:44:19.142Z,69.11
2023-06-20T22:46:46.373Z,69.03
2023-06-20T22:49:13.621Z,68.87
2023-06-20T22:51:40.960Z,69.01
2023-06-20T22:54:08.519Z,68.38
2023-06-20T22:56:37.611Z,68.18
2023-06-20T22:59:04.909Z,67.81
2023-06-20T23:01:32.234Z,67.70
2023-06-20T23:03:59.633Z,67.59
2023-06-20T23:06:26.443Z,67.90
2023-06-20T23:08:53.705Z,67.47
2023-06-20T23:11:21.489Z,67.21
2023-06-20T23:13:48.981Z,67.22
2023-06-20T23:16:16.096Z,67.26
2023-06-20T23:18:43.479Z,67.30
2023-06-20T23:21:10.892Z,67.26
2023-06-20T23:23:41.409Z,67.32
2023-06-20T23:26:08.469Z,66.98
2023-06-20T23:28:35.965Z,67.08
2023-06-20T23:31:03.152Z,66.94
2023-06-20T23:33:32.765Z,66.71
2023-06-20T23:36:00.243Z,66.52
2023-06-20T23:38:28.495Z,66.42
2023-06-20T23:40:56.438Z,66.27
2023-06-20T23:43:26.328Z,66.24
2023-06-20T23:45:54.210Z,66.55
2023-06-20T23:48:21.773Z,66.95
2023-06-20T23:50:49.126Z,67.50
2023-06-20T23:53:16.434Z,67.59
2023-06-20T23:55:43.854Z,68.07
2023-06-20T23:58:11.297Z,68.33
